• Join FlightAware (Why Join?)
  • Login
  • US Flag 
01:48PM EDT


 

Airport Tracker/Info


-or-


 

Live Flight TrackerFlight Track Log ✈ AWE3794 ✈ 25-Apr-2013 ✈ KPHL - KCLE

Flight Track Log - Related Links

Times and Time Zones

All times are in EDT time to prevent confusion due to time zone crossing. See the AWE3794 flight status page for this flight to view local times or setup timezone preferences in your user account.

Time Position Orientation Groundspeed Altitude Reporting Facility
EDT Latitude Longitude Course Direction KTS MPH feet Rate Location/Type
07:31AM 39.8600 -75.2764 311° West 157 181 900  Level FAA TRACON SMA TRACON (SMA)
07:31AM 39.8556 -75.2947 252° West 161 185 1,700 2,220 Climbing FAA TRACON SMA TRACON (SMA)
07:31AM 39.8503 -75.3128 249° West 176 203 2,400 1,920 Climbing FAA TRACON SMA TRACON (SMA)
07:32AM 39.8431 -75.3369 249° West 210 242 3,000 1,800 Climbing FAA TRACON SMA TRACON (SMA)
07:32AM 39.8356 -75.3617 248° West 232 267 3,600 1,920 Climbing FAA TRACON SMA TRACON (SMA)
07:32AM 39.8278 -75.3892 250° West 255 293 4,300 2,400 Climbing FAA TRACON SMA TRACON (SMA)
07:33AM 40.0510 -75.4010 323° Northwest  Level FlightAware Approximate
07:33AM 39.8208 -75.4167 252° West 262 302 5,200  Level FAA TRACON SMA TRACON (SMA)
07:33AM 39.8222 -75.4514 273° West 250 288 6,600 3,120 Climbing FAA TRACON SMA TRACON (SMA)
07:33AM 39.8325 -75.4725 302° West 244 281 7,300 2,100 Climbing FAA TRACON SMA TRACON (SMA)
07:34AM 40.1139 -75.4639 323° Northwest  Level FlightAware Approximate
07:34AM 39.8519 -75.4892 327° Northwest 266 306 8,000  Level FAA TRACON SMA TRACON (SMA)
07:34AM 39.8828 -75.4961 350° North 288 331 8,800 2,220 Climbing FAA TRACON SMA TRACON (SMA)
07:34AM 39.9078 -75.5008 352° North 295 339 9,500 2,520 Climbing FAA TRACON SMA TRACON (SMA)
07:35AM 40.1768 -75.5268 323° Northwest  Level FlightAware Approximate
07:35AM 39.9328 -75.5058 351° North 293 337 10,500  Level FAA TRACON SMA TRACON (SMA)
07:35AM 39.9569 -75.5106 351° North 286 329 11,400 2,460 Climbing FAA TRACON SMA TRACON (SMA)
07:35AM 39.9947 -75.5169 353° North 287 330 12,300 1,800 Climbing FAA TRACON SMA TRACON (SMA)
07:36AM 40.2387 -75.5829 311° West  Level FlightAware Approximate
07:36AM 40.0181 -75.5217 351° North 292 336 12,700  Level FAA TRACON SMA TRACON (SMA)
07:36AM 40.0467 -75.5261 353° North 318 366 13,000 600 Climbing FAA TRACON SMA TRACON (SMA)
07:36AM 40.0761 -75.5328 350° North 349 402 13,100  Climbing FAA TRACON SMA TRACON (SMA)
07:37AM 40.1050 -75.5386 351° North 355 409 13,000  Descending FAA TRACON SMA TRACON (SMA)
07:37AM 40.1378 -75.5450 352° North 364 419 13,100  Climbing FAA TRACON SMA TRACON (SMA)
07:37AM 40.1767 -75.5519 352° North 367 422 13,000 120 Descending FAA TRACON SMA TRACON (SMA)
07:38AM 40.2075 -75.5600 349° North 358 412 13,200 900 Climbing FAA TRACON SMA TRACON (SMA)
07:38AM 40.2325 -75.5792 330° Northwest 339 390 13,600 1,560 Climbing FAA TRACON SMA TRACON (SMA)
07:38AM 40.2556 -75.6128 312° West 322 371 14,300 1,560 Climbing FAA TRACON SMA TRACON (SMA)
07:39AM 40.2744 -75.6403 312° West 330 380 14,700 1,380 Climbing FAA TRACON SMA TRACON (SMA)
07:39AM 40.2931 -75.6675 312° West 334 384 15,200 1,800 Climbing FAA TRACON SMA TRACON (SMA)
07:39AM 40.3172 -75.7042 311° West 338 389 15,900 1,860 Climbing FAA TRACON SMA TRACON (SMA)
07:40AM 40.3364 -75.7325 312° West 343 395 16,500 1,560 Climbing FAA TRACON SMA TRACON (SMA)
07:40AM 40.3564 -75.7628 311° West 345 397 17,000 1,500 Climbing FAA TRACON SMA TRACON (SMA)
07:40AM 40.3711 -75.7844 312° West 345 397 17,500 720 Climbing FAA TRACON SMA TRACON (SMA)
07:41AM 40.3711 -75.7844 288° West 345 397 17,500 1,020 Level FAA TRACON SMA TRACON (SMA)
07:41AM 40.4283 -75.8722 311° West 348 400 18,300 1,260 Climbing New York Center
07:42AM 40.4567 -75.9889 288° West 333 383 19,400 1,200 Climbing New York Center
07:43AM 40.4742 -76.1078 281° West 333 383 20,800 1,440 Climbing New York Center
07:44AM 40.4917 -76.2264 281° West 333 383 22,300 1,560 Climbing New York Center
07:45AM 40.5094 -76.3397 282° West 333 383 23,900 1,620 Climbing New York Center
07:46AM 40.5269 -76.4531 282° West 326 375 25,600 1,080 Climbing New York Center
07:47AM 40.5447 -76.5583 283° West 315 362 26,100 540 Climbing New York Center
07:48AM 40.5686 -76.6669 286° West 310 357 26,700 540 Climbing New York Center
07:49AM 40.6003 -76.7819 290° West 322 371 27,200 540 Climbing New York Center
07:50AM 40.6297 -76.8992 288° West 334 384 27,800 360 Climbing New York Center
07:51AM 40.6611 -77.0142 290° West 334 384 28,000 60 Climbing New York Center
07:52AM 40.6906 -77.1292 289° West 334 384 28,000  Level New York Center
07:53AM 40.7200 -77.2386 290° West 329 379 28,000  Level New York Center
07:54AM 40.7481 -77.3372 291° West 329 379 28,000  Level New York Center
07:55AM 40.7772 -77.4497 289° West 329 379 28,000  Level New York Center
07:57AM 40.8281 -77.6550 288° West 327 376 28,000  Level Cleveland Center
07:58AM 40.8581 -77.7692 289° West 327 376 28,000  Level Cleveland Center
07:59AM 40.8881 -77.8858 289° West 327 376 28,000  Level Cleveland Center
08:00AM 40.9158 -78.0056 287° West 333 383 28,000  Level Cleveland Center
08:01AM 40.9372 -78.1258 283° West 338 389 28,000  Level Cleveland Center
08:02AM 40.9583 -78.2433 283° West 338 389 28,000  Level Cleveland Center
08:03AM 40.9794 -78.3636 283° West 338 389 28,000  Level Cleveland Center
08:04AM 40.9986 -78.4867 282° West 338 389 28,000  Level Cleveland Center
08:05AM 41.0194 -78.6097 283° West 338 389 28,000  Level Cleveland Center
08:06AM 41.0403 -78.7303 283° West 338 389 28,000  Level Cleveland Center
08:07AM 41.0589 -78.8539 281° West 343 395 28,000  Level Cleveland Center
08:08AM 41.0775 -78.9772 281° West 343 395 28,000  Level Cleveland Center
08:09AM 41.0978 -79.1008 282° West 343 395 28,000  Level Cleveland Center
08:10AM 41.1161 -79.2272 281° West 349 402 28,000  Level Cleveland Center
08:11AM 41.1342 -79.3508 281° West 354 407 28,000  Level Cleveland Center
08:12AM 41.1542 -79.4717 282° West 354 407 28,000  Level Cleveland Center
08:13AM 41.1719 -79.5956 281° West 354 407 28,000  Level Cleveland Center
08:14AM 41.1894 -79.7139 281° West 349 402 28,000 -60 Level Cleveland Center
08:15AM 41.2092 -79.8381 282° West 349 402 27,900 -900 Descending Cleveland Center
08:16AM 41.2286 -79.9647 282° West 354 407 26,300 -1,560 Descending Cleveland Center
08:17AM 41.2481 -80.0833 282° West 349 402 24,800 -1,500 Descending Cleveland Center
08:18AM 41.2611 -80.1908 279° West 327 376 23,300 -1,560 Descending Cleveland Center
08:19AM 41.2781 -80.3042 281° West 316 364 21,700 -1,800 Descending Cleveland Center
08:20AM 41.2969 -80.4367 281° West 321 369 19,800 -1,800 Descending Cleveland Center
08:21AM 41.3117 -80.5472 280° West 315 362 18,200 -1,500 Descending Cleveland Center
08:22AM 41.3283 -80.6522 282° West 306 352 16,900 -1,500 Descending Cleveland Center
08:23AM 41.3617 -80.7547 293° West 301 346 15,300 -1,680 Descending Cleveland Center
08:24AM 41.3989 -80.8517 297° West 296 341 13,600 -1,500 Descending Cleveland Center
08:25AM 41.4319 -80.9431 296° West 301 346 12,300 -1,560 Descending Cleveland Center
08:25AM 41.4569 -81.0042 299° West 287 330 11,200 -1,620 Descending Cleveland Center
08:26AM 41.4672 -81.0347 294° West 295 339 10,700 -1,260 Descending Cleveland Center
08:26AM 41.4858 -81.0792 299° West 270 311 10,100 -720 Descending Cleveland Center
08:27AM 41.5000 -81.1208 294° West 270 311 10,000 -120 Descending Cleveland Center
08:27AM 41.5125 -81.1683 289° West 255 293 10,000  Level Cleveland Center
08:28AM 41.5100 -81.2097 265° West 248 285 10,000  Level Cleveland Center
08:28AM 41.5056 -81.2653 264° West 250 288 10,000  Level Cleveland Center
08:29AM 41.5011 -81.3011 261° West 242 278 10,000  Level Cleveland Center
08:29AM 41.4967 -81.3567 264° West 245 282 10,000 -720 Level Cleveland Center
08:30AM 41.4922 -81.3897 260° West 242 278 9,300 -1,920 Descending Cleveland Center
08:30AM 41.4878 -81.4397 263° West 232 267 8,100 -2,100 Descending Cleveland Center
08:31AM 41.5000 -81.4731 296° West 233 268 7,200 -2,100 Descending Cleveland Center
08:31AM 41.5164 -81.5233 294° West 245 282 6,000 -2,040 Descending Cleveland Center
08:32AM 41.5264 -81.5567 292° West 239 275 5,200 -1,920 Descending Cleveland Center
08:32AM 41.5322 -81.6094 278° West 245 282 4,100 -1,200 Descending Cleveland Center
08:33AM 41.5278 -81.6400 259° West 239 275 4,000 -240 Descending Cleveland Center